Time;durP1;ratioP1;P1;durP2;ratioP2;P2;SDS_P1;SDS_P2;PMS_P1;PMS_P2;Temp;Humidity;BMP_temperature;BMP_pressure;BME280_temperature;BME280_humidity;BME280_pressure;Samples;Min_cycle;Max_cycle;Signal;HPM_P1;HPM_P2
2021/08/04 00:00:27;;;;;;;;;;;;;;;22.87;57.91;99462.84;2063207;28;19964;-68
2021/08/04 00:01:27;;;;;;;;;;;;;;;22.86;57.87;99467.50;2063600;28;20081;-68
2021/08/04 00:02:28;;;;;;;;;;;;;;;22.87;57.92;99471.09;2070557;28;19919;-68
2021/08/04 00:03:28;;;;;;;;;;;;;;;22.87;57.77;99469.19;2067385;28;19959;-68
2021/08/04 00:04:28;;;;;;;;;;;;;;;22.87;57.92;99471.09;2067420;28;19920;-68
2021/08/04 00:05:29;;;;;;;;;;;;;;;22.87;57.74;99468.34;2069023;28;20284;-68
2021/08/04 00:06:29;;;;;;;;;;;;;;;22.86;57.91;99466.66;2061978;28;19909;-68
2021/08/04 00:07:29;;;;;;;;;;;;;;;22.85;57.96;99468.53;2067661;28;20566;-68
2021/08/04 00:08:30;;;;;;;;;;;;;;;22.87;57.84;99479.34;2066524;28;19917;-68
2021/08/04 00:09:30;;;;;;;;;;;;;;;22.87;57.96;99471.09;2060447;28;20292;-68
2021/08/04 00:10:30;;;;;;;;;;;;;;;22.87;57.96;99479.34;2066784;28;19921;-68
2021/08/04 00:11:31;;;;;;;;;;;;;;;22.87;57.87;99473.84;2064489;28;19948;-68
2021/08/04 00:12:31;;;;;;;;;;;;;;;22.86;57.81;99469.41;2062371;28;20008;-68
2021/08/04 00:13:31;;;;;;;;;;;;;;;22.85;58.00;99470.44;2064667;28;19917;-68
2021/08/04 00:14:32;;;;;;;;;;;;;;;22.85;57.91;99465.78;2061390;28;19943;-68
2021/08/04 00:15:32;;;;;;;;;;;;;;;22.86;57.99;99470.25;2066806;28;20011;-68
2021/08/04 00:16:33;;;;;;;;;;;;;;;22.86;57.98;99461.16;2068097;28;19924;-69
2021/08/04 00:17:33;;;;;;;;;;;;;;;22.85;57.85;99464.94;2062480;28;20494;-68
2021/08/04 00:18:33;;;;;;;;;;;;;;;22.85;57.91;99459.44;2067088;28;19915;-68
2021/08/04 00:19:34;;;;;;;;;;;;;;;22.85;57.76;99456.69;2061914;28;19924;-68
2021/08/04 00:20:34;;;;;;;;;;;;;;;22.85;57.84;99456.69;2067216;28;20518;-68
2021/08/04 00:21:34;;;;;;;;;;;;;;;22.86;57.99;99455.66;2066883;28;19993;-68
2021/08/04 00:22:35;;;;;;;;;;;;;;;22.85;58.00;99456.69;2067080;28;19921;-68
2021/08/04 00:23:35;;;;;;;;;;;;;;;22.85;57.99;99465.78;2067171;28;19956;-68
2021/08/04 00:24:35;;;;;;;;;;;;;;;22.85;58.03;99465.78;2062731;28;19918;-69
2021/08/04 00:25:36;;;;;;;;;;;;;;;22.86;57.89;99472.16;2065923;28;19921;-68
2021/08/04 00:26:36;;;;;;;;;;;;;;;22.85;57.83;99464.94;2066729;28;20286;-68
2021/08/04 00:27:36;;;;;;;;;;;;;;;22.86;57.67;99466.66;2063217;28;20387;-69
2021/08/04 00:28:37;;;;;;;;;;;;;;;22.86;57.80;99463.91;2066173;28;19917;-68
2021/08/04 00:29:37;;;;;;;;;;;;;;;22.86;57.76;99466.66;2060852;28;20133;-68
2021/08/04 00:30:37;;;;;;;;;;;;;;;22.86;57.87;99458.41;2064700;28;19925;-68
2021/08/04 00:31:38;;;;;;;;;;;;;;;22.85;58.05;99459.44;2064593;28;20338;-68
2021/08/04 00:32:38;;;;;;;;;;;;;;;22.85;57.90;99464.94;2068585;28;19913;-69
2021/08/04 00:33:38;;;;;;;;;;;;;;;22.85;58.05;99460.28;2067052;28;19921;-68
2021/08/04 00:34:39;;;;;;;;;;;;;;;22.85;58.01;99459.44;2069038;28;19963;-69
2021/08/04 00:35:39;;;;;;;;;;;;;;;22.84;58.06;99458.59;2066891;28;19921;-69
2021/08/04 00:36:39;;;;;;;;;;;;;;;22.85;57.90;99456.69;2067760;28;19917;-68
2021/08/04 00:37:39;;;;;;;;;;;;;;;22.84;57.99;99450.34;2065510;28;19923;-69
2021/08/04 00:38:40;;;;;;;;;;;;;;;22.84;57.94;99453.09;2067835;28;19921;-69
2021/08/04 00:39:40;;;;;;;;;;;;;;;22.85;58.09;99453.94;2066225;28;19925;-68
2021/08/04 00:40:41;;;;;;;;;;;;;;;22.85;57.98;99453.94;2067925;28;19910;-67
2021/08/04 00:41:42;;;;;;;;;;;;;;;22.85;57.82;99442.94;2067861;28;20315;-68
2021/08/04 00:42:42;;;;;;;;;;;;;;;22.84;57.91;99444.00;2067223;28;19993;-68
2021/08/04 00:43:43;;;;;;;;;;;;;;;22.84;57.86;99446.75;2067598;28;19920;-69
2021/08/04 00:44:43;;;;;;;;;;;;;;;22.85;58.11;99438.31;2067535;28;20015;-68
2021/08/04 00:45:43;;;;;;;;;;;;;;;22.84;58.04;99430.25;2066829;28;19917;-68
2021/08/04 00:46:44;;;;;;;;;;;;;;;22.84;58.08;99430.25;2066329;28;20348;-68
2021/08/04 00:47:46;;;;;;;;;;;;;;;22.84;58.08;99424.78;2069268;28;20454;-68
2021/08/04 00:48:47;;;;;;;;;;;;;;;22.83;58.16;99423.03;2063465;28;19918;-67
2021/08/04 00:49:48;;;;;;;;;;;;;;;22.83;58.04;99414.81;2066848;28;20007;-68
2021/08/04 00:50:48;;;;;;;;;;;;;;;22.84;57.96;99427.53;2063300;28;19921;-68
2021/08/04 00:51:49;;;;;;;;;;;;;;;22.83;58.06;99415.69;2064529;28;19920;-68
2021/08/04 00:52:49;;;;;;;;;;;;;;;22.85;57.84;99415.47;2063960;28;19928;-67
2021/08/04 00:53:49;;;;;;;;;;;;;;;22.83;57.98;99412.94;2067119;28;20323;-68
2021/08/04 00:54:50;;;;;;;;;;;;;;;22.84;58.06;99417.38;2067286;28;20141;-68
2021/08/04 00:55:50;;;;;;;;;;;;;;;22.83;57.92;99412.94;2065000;28;20289;-68
2021/08/04 00:56:51;;;;;;;;;;;;;;;22.84;57.94;99416.53;2066945;28;20366;-68
2021/08/04 00:57:51;;;;;;;;;;;;;;;22.83;58.09;99415.69;2068149;28;19917;-68
2021/08/04 00:58:52;;;;;;;;;;;;;;;22.84;57.86;99411.88;2068367;28;20273;-68
2021/08/04 00:59:52;;;;;;;;;;;;;;;22.84;58.06;99413.78;2065444;28;19917;-69
2021/08/04 01:00:59;;;;;;;;;;;;;;;22.84;57.93;99402.78;2070634;28;19920;-68
2021/08/04 01:02:05;;;;;;;;;;;;;;;22.85;57.93;99404.47;2067440;28;19921;-68
2021/08/04 01:03:06;;;;;;;;;;;;;;;22.84;58.12;99408.28;2059082;28;19917;-68
2021/08/04 01:04:10;;;;;;;;;;;;;;;22.84;58.08;99411.88;2059474;28;19917;-68
2021/08/04 01:05:21;;;;;;;;;;;;;;;22.85;57.92;99415.47;2067749;28;19917;-68
2021/08/04 01:06:27;;;;;;;;;;;;;;;22.84;57.94;99414.63;2068056;28;19917;-69
2021/08/04 01:07:32;;;;;;;;;;;;;;;22.84;58.07;99413.78;2066951;28;20015;-68
2021/08/04 01:08:36;;;;;;;;;;;;;;;22.84;58.09;99414.63;2066286;28;19909;-68
2021/08/04 01:09:45;;;;;;;;;;;;;;;22.84;58.07;99413.78;2066647;28;20016;-68
2021/08/04 01:10:50;;;;;;;;;;;;;;;22.84;58.08;99419.28;2064942;28;19913;-68
2021/08/04 01:11:54;;;;;;;;;;;;;;;22.84;58.10;99413.78;2068146;28;20385;-68
2021/08/04 01:13:03;;;;;;;;;;;;;;;22.85;57.99;99415.47;2068045;28;19913;-68
2021/08/04 01:14:06;;;;;;;;;;;;;;;22.84;58.01;99425.63;2067857;28;19967;-68
2021/08/04 01:15:06;;;;;;;;;;;;;;;22.85;58.13;99420.97;2065752;28;20471;-68
2021/08/04 01:16:19;;;;;;;;;;;;;;;22.85;58.12;99412.72;2067927;28;20809;-68
2021/08/04 01:17:19;;;;;;;;;;;;;;;22.85;57.99;99415.47;2066356;28;20398;-68
2021/08/04 01:18:23;;;;;;;;;;;;;;;22.85;58.08;99415.47;2066833;28;20446;-68
2021/08/04 01:19:32;;;;;;;;;;;;;;;22.84;57.97;99419.28;2068260;28;19921;-68
2021/08/04 01:20:33;;;;;;;;;;;;;;;22.85;58.11;99420.97;2062073;28;19917;-68
2021/08/04 01:21:44;;;;;;;;;;;;;;;22.84;58.00;99424.78;2064177;28;19933;-69
2021/08/04 01:23:03;;;;;;;;;;;;;;;22.84;58.08;99422.03;2059053;28;19906;-69
2021/08/04 01:24:19;;;;;;;;;;;;;;;22.84;58.08;99422.03;2067123;28;19988;-69
2021/08/04 01:25:21;;;;;;;;;;;;;;;22.84;58.15;99424.78;2070367;28;20262;-69
2021/08/04 01:26:34;;;;;;;;;;;;;;;22.84;58.13;99430.25;2065606;28;19999;-68
2021/08/04 01:27:34;;;;;;;;;;;;;;;22.83;58.20;99426.69;2061862;28;19913;-68
2021/08/04 01:28:43;;;;;;;;;;;;;;;22.83;58.24;99425.78;2065418;28;20119;-68
2021/08/04 01:29:44;;;;;;;;;;;;;;;22.83;58.09;99429.41;2068394;28;19917;-68
2021/08/04 01:30:45;;;;;;;;;;;;;;;22.83;58.20;99425.78;2060683;28;19979;-68
2021/08/04 01:31:48;;;;;;;;;;;;;;;22.83;57.96;99431.28;2062433;28;19925;-68
2021/08/04 01:32:48;;;;;;;;;;;;;;;22.84;58.02;99425.63;2060794;28;19909;-69
2021/08/04 01:33:49;;;;;;;;;;;;;;;22.83;58.26;99417.56;2066708;28;20471;-69
2021/08/04 01:34:50;;;;;;;;;;;;;;;22.81;58.08;99423.25;2061002;28;19913;-68
2021/08/04 01:35:52;;;;;;;;;;;;;;;22.82;58.06;99427.69;2067368;28;19925;-69
2021/08/04 01:36:53;;;;;;;;;;;;;;;22.82;58.23;99415.88;2067162;28;20008;-69
2021/08/04 01:37:54;;;;;;;;;;;;;;;22.82;58.23;99422.19;2068089;28;19914;-69
2021/08/04 01:38:54;;;;;;;;;;;;;;;22.82;58.09;99422.19;2067330;28;20414;-70
2021/08/04 01:39:56;;;;;;;;;;;;;;;22.83;58.20;99423.03;2067242;28;19971;-69
2021/08/04 01:40:57;;;;;;;;;;;;;;;22.83;57.97;99423.94;2068524;28;19917;-69
2021/08/04 01:41:57;;;;;;;;;;;;;;;22.82;58.27;99422.19;2070523;28;19917;-69
2021/08/04 01:42:58;;;;;;;;;;;;;;;22.83;58.17;99431.28;2067651;28;20388;-69
2021/08/04 01:43:59;;;;;;;;;;;;;;;22.83;57.99;99425.78;2067398;28;19963;-69
2021/08/04 01:45:00;;;;;;;;;;;;;;;22.82;58.06;99435.09;2067681;28;20307;-69
2021/08/04 01:46:00;;;;;;;;;;;;;;;22.83;58.06;99432.16;2066375;28;19925;-69
2021/08/04 01:47:01;;;;;;;;;;;;;;;22.83;58.07;99434.91;2067997;28;19909;-69
2021/08/04 01:48:01;;;;;;;;;;;;;;;22.84;58.15;99441.25;2066664;28;19917;-69
2021/08/04 01:49:03;;;;;;;;;;;;;;;22.83;58.07;99436.78;2066735;28;20048;-69
2021/08/04 01:50:04;;;;;;;;;;;;;;;22.83;58.05;99439.53;2067236;28;19913;-69
2021/08/04 01:51:05;;;;;;;;;;;;;;;22.84;58.18;99435.75;2065799;28;19952;-70
2021/08/04 01:52:06;;;;;;;;;;;;;;;22.82;58.25;99438.69;2068749;28;20481;-69
2021/08/04 01:53:07;;;;;;;;;;;;;;;22.83;58.08;99443.16;2056412;28;19925;-69
2021/08/04 01:54:08;;;;;;;;;;;;;;;22.84;58.09;99436.59;2065940;28;19971;-69
2021/08/04 01:55:10;;;;;;;;;;;;;;;22.84;58.02;99438.50;2067633;28;19913;-69
2021/08/04 01:56:10;;;;;;;;;;;;;;;22.84;58.10;99441.25;2065815;28;20490;-69
2021/08/04 01:57:10;;;;;;;;;;;;;;;22.83;58.20;99434.91;2068773;28;19964;-69
2021/08/04 01:58:11;;;;;;;;;;;;;;;22.83;58.12;99436.78;2064949;28;19917;-69
2021/08/04 01:59:12;;;;;;;;;;;;;;;22.83;58.22;99439.53;2067642;28;20380;-69
2021/08/04 02:00:12;;;;;;;;;;;;;;;22.83;58.30;99431.28;2066794;28;19924;-69
2021/08/04 02:01:13;;;;;;;;;;;;;;;22.83;58.28;99423.03;2066883;28;19917;-69
2021/08/04 02:02:20;;;;;;;;;;;;;;;22.82;58.23;99411.22;2066597;28;19975;-69
2021/08/04 02:03:21;;;;;;;;;;;;;;;22.83;58.15;99401.06;2065976;28;20193;-69
2021/08/04 02:04:21;;;;;;;;;;;;;;;22.82;58.07;99391.13;2066589;28;20492;-69
2021/08/04 02:05:30;;;;;;;;;;;;;;;22.81;58.18;99392.19;2067697;28;19921;-69
2021/08/04 02:06:50;;;;;;;;;;;;;;;22.80;58.09;99385.81;2065722;28;19909;-69
2021/08/04 02:08:05;;;;;;;;;;;;;;;22.80;58.29;99379.47;2062318;28;20375;-69
2021/08/04 02:09:24;;;;;;;;;;;;;;;22.81;58.26;99381.19;2068806;28;19917;-69
2021/08/04 02:10:43;;;;;;;;;;;;;;;22.80;58.15;99385.81;2065551;28;19921;-69
2021/08/04 02:11:57;;;;;;;;;;;;;;;22.80;58.26;99379.47;2065192;28;20702;-69
2021/08/04 02:13:07;;;;;;;;;;;;;;;22.80;58.03;99373.97;2065054;28;19917;-69
2021/08/04 02:14:18;;;;;;;;;;;;;;;22.80;58.29;99368.47;2060329;28;20352;-69
2021/08/04 02:15:20;;;;;;;;;;;;;;;22.80;58.40;99368.47;2064814;28;19917;-69
2021/08/04 02:16:50;;;;;;;;;;;;;;;22.81;58.17;99370.22;2068172;28;21852;-69
2021/08/04 02:17:55;;;;;;;;;;;;;;;22.80;58.16;99379.47;2057783;28;20530;-69
2021/08/04 02:19:07;;;;;;;;;;;;;;;22.80;58.37;99371.22;2066625;28;19920;-69
2021/08/04 02:20:16;;;;;;;;;;;;;;;22.80;58.28;99376.72;2065650;28;19917;-69
2021/08/04 02:21:20;;;;;;;;;;;;;;;22.81;58.41;99381.19;2066892;28;19917;-69
2021/08/04 02:22:43;;;;;;;;;;;;;;;22.79;58.30;99370.38;2067694;28;19943;-69
2021/08/04 02:23:44;;;;;;;;;;;;;;;22.80;58.32;99380.31;2060224;28;19913;-69
2021/08/04 02:24:47;;;;;;;;;;;;;;;22.80;58.29;99373.97;2066883;28;19924;-69
2021/08/04 02:25:48;;;;;;;;;;;;;;;22.80;58.21;99372.06;2066375;28;19924;-69
2021/08/04 02:26:49;;;;;;;;;;;;;;;22.80;58.38;99373.97;2063268;28;19917;-69
2021/08/04 02:27:50;;;;;;;;;;;;;;;22.80;58.29;99376.72;2063757;28;19921;-69
2021/08/04 02:28:52;;;;;;;;;;;;;;;22.79;58.34;99378.63;2065216;28;19913;-69
2021/08/04 02:29:55;;;;;;;;;;;;;;;22.81;58.36;99379.28;2067944;28;19917;-69
2021/08/04 02:30:56;;;;;;;;;;;;;;;22.80;58.44;99376.72;2067000;28;19924;-69
2021/08/04 02:31:56;;;;;;;;;;;;;;;22.80;58.16;99384.97;2064369;28;19920;-69
2021/08/04 02:32:57;;;;;;;;;;;;;;;22.80;58.22;99379.47;2058953;28;19967;-69
2021/08/04 02:33:59;;;;;;;;;;;;;;;22.81;58.32;99376.53;2062705;28;19917;-69
2021/08/04 02:34:59;;;;;;;;;;;;;;;22.80;58.34;99379.47;2060811;28;20017;-69
2021/08/04 02:36:00;;;;;;;;;;;;;;;22.80;58.26;99382.22;2066596;28;19924;-69
2021/08/04 02:37:00;;;;;;;;;;;;;;;22.79;58.29;99370.38;2065729;28;19917;-69
2021/08/04 02:38:00;;;;;;;;;;;;;;;22.80;58.21;99379.47;2067466;28;19917;-69
2021/08/04 02:39:01;;;;;;;;;;;;;;;22.80;58.20;99383.06;2066859;28;19924;-69
2021/08/04 02:40:03;;;;;;;;;;;;;;;22.80;58.23;99377.56;2067333;28;20306;-69
2021/08/04 02:41:03;;;;;;;;;;;;;;;22.79;58.38;99383.28;2068127;28;20319;-69
2021/08/04 02:42:04;;;;;;;;;;;;;;;22.79;58.20;99375.03;2063362;28;19925;-69
2021/08/04 02:43:04;;;;;;;;;;;;;;;22.78;58.43;99376.91;2066008;28;19967;-69
2021/08/04 02:44:05;;;;;;;;;;;;;;;22.80;58.39;99380.31;2065358;28;19925;-69
2021/08/04 02:45:06;;;;;;;;;;;;;;;22.80;58.18;99384.97;2062202;28;19909;-69
2021/08/04 02:46:06;;;;;;;;;;;;;;;22.80;58.27;99380.31;2067469;28;20107;-69
2021/08/04 02:47:06;;;;;;;;;;;;;;;22.82;58.20;99388.38;2066719;28;19909;-69
2021/08/04 02:48:07;;;;;;;;;;;;;;;22.81;58.38;99393.03;2065606;28;19943;-69
2021/08/04 02:49:08;;;;;;;;;;;;;;;22.80;58.18;99383.06;2067498;28;20110;-69
2021/08/04 02:50:10;;;;;;;;;;;;;;;22.79;58.40;99389.63;2064220;28;20470;-69
2021/08/04 02:51:12;;;;;;;;;;;;;;;22.80;58.46;99385.81;2067085;28;20034;-69
2021/08/04 02:52:14;;;;;;;;;;;;;;;22.80;58.40;99384.97;2064667;28;20031;-69
2021/08/04 02:53:15;;;;;;;;;;;;;;;22.79;58.30;99389.63;2065861;28;19944;-69
2021/08/04 02:54:17;;;;;;;;;;;;;;;22.80;58.40;99387.72;2065803;28;19944;-69
2021/08/04 02:55:17;;;;;;;;;;;;;;;22.80;58.25;99388.56;2066474;28;19905;-69
2021/08/04 02:56:18;;;;;;;;;;;;;;;22.81;58.35;99386.69;2067254;28;20016;-69
2021/08/04 02:57:18;;;;;;;;;;;;;;;22.80;58.46;99380.31;2066552;28;19921;-69
2021/08/04 02:58:18;;;;;;;;;;;;;;;22.81;58.47;99383.94;2067159;28;19959;-69
2021/08/04 02:59:19;;;;;;;;;;;;;;;22.80;58.41;99384.97;2067113;28;19917;-69
2021/08/04 03:00:19;;;;;;;;;;;;;;;22.80;58.36;99376.72;2066364;28;19941;-69
2021/08/04 03:01:19;;;;;;;;;;;;;;;22.80;58.28;99382.22;2067681;28;19916;-69
2021/08/04 03:02:20;;;;;;;;;;;;;;;22.80;58.38;99371.22;2062074;28;20377;-69
2021/08/04 03:03:20;;;;;;;;;;;;;;;22.81;58.34;99367.47;2066469;28;20509;-69
2021/08/04 03:04:20;;;;;;;;;;;;;;;22.79;58.24;99361.31;2063399;28;19913;-69
2021/08/04 03:05:21;;;;;;;;;;;;;;;22.79;58.48;99348.41;2063322;28;19944;-69
2021/08/04 03:06:21;;;;;;;;;;;;;;;22.78;58.41;99340.34;2067064;28;19963;-69
2021/08/04 03:07:21;;;;;;;;;;;;;;;22.79;58.41;99344.81;2065244;28;20423;-69
2021/08/04 03:08:21;;;;;;;;;;;;;;;22.78;58.49;99343.09;2066638;28;19925;-69
2021/08/04 03:09:22;;;;;;;;;;;;;;;22.78;58.38;99343.09;2062922;28;19910;-69
2021/08/04 03:10:23;;;;;;;;;;;;;;;22.79;58.50;99350.31;2065266;28;19916;-70
2021/08/04 03:11:23;;;;;;;;;;;;;;;22.79;58.25;99344.81;2062149;28;20418;-69
2021/08/04 03:12:23;;;;;;;;;;;;;;;22.79;58.51;99344.81;2060327;28;20028;-69
2021/08/04 03:13:24;;;;;;;;;;;;;;;22.79;58.37;99353.06;2066436;28;20695;-69
2021/08/04 03:14:24;;;;;;;;;;;;;;;22.79;58.50;99355.81;2066215;28;20566;-69
2021/08/04 03:15:25;;;;;;;;;;;;;;;22.78;58.34;99356.81;2058733;28;20332;-69
2021/08/04 03:16:26;;;;;;;;;;;;;;;22.78;58.47;99348.59;2061842;28;19917;-69
2021/08/04 03:17:26;;;;;;;;;;;;;;;22.79;58.42;99347.56;2061937;28;20280;-69
2021/08/04 03:18:26;;;;;;;;;;;;;;;22.79;58.38;99353.06;2066172;28;19939;-70
2021/08/04 03:19:27;;;;;;;;;;;;;;;22.80;58.36;99354.75;2060584;28;20234;-69
2021/08/04 03:20:27;;;;;;;;;;;;;;;22.79;58.45;99345.66;2062475;28;19913;-69
2021/08/04 03:21:27;;;;;;;;;;;;;;;22.80;58.50;99346.50;2062962;28;20019;-69
2021/08/04 03:22:28;;;;;;;;;;;;;;;22.78;58.46;99340.34;2066833;28;20463;-69
2021/08/04 03:23:28;;;;;;;;;;;;;;;22.78;58.33;99335.69;2066234;28;19948;-69
2021/08/04 03:24:28;;;;;;;;;;;;;;;22.78;58.51;99337.59;2066884;28;19917;-70
2021/08/04 03:25:29;;;;;;;;;;;;;;;22.79;58.26;99342.06;2064950;28;20431;-69
2021/08/04 03:26:29;;;;;;;;;;;;;;;22.78;58.41;99337.59;2065648;28;19944;-69
2021/08/04 03:27:29;;;;;;;;;;;;;;;22.78;58.38;99337.59;2061500;28;20216;-69
2021/08/04 03:28:29;;;;;;;;;;;;;;;22.78;58.34;99338.44;2063692;28;19963;-69
2021/08/04 03:29:30;;;;;;;;;;;;;;;22.78;58.28;99332.94;2067802;28;19916;-69
2021/08/04 03:30:30;;;;;;;;;;;;;;;22.78;58.49;99326.59;2063015;28;20420;-69
2021/08/04 03:31:30;;;;;;;;;;;;;;;22.77;58.23;99327.66;2061761;28;20276;-69
2021/08/04 03:32:31;;;;;;;;;;;;;;;22.77;58.56;99319.41;2061569;28;20343;-69
2021/08/04 03:33:31;;;;;;;;;;;;;;;22.78;58.37;99318.38;2063704;28;19917;-69
2021/08/04 03:34:31;;;;;;;;;;;;;;;22.77;58.42;99325.75;2066198;28;19924;-69
2021/08/04 03:35:32;;;;;;;;;;;;;;;22.76;58.46;99324.06;2064492;28;19925;-69
2021/08/04 03:36:32;;;;;;;;;;;;;;;22.77;58.34;99325.75;2059801;28;20406;-70
2021/08/04 03:37:33;;;;;;;;;;;;;;;22.77;58.52;99330.41;2061057;28;20020;-69
2021/08/04 03:38:33;;;;;;;;;;;;;;;22.77;58.52;99333.16;2059827;28;20490;-69
2021/08/04 03:39:33;;;;;;;;;;;;;;;22.76;58.51;99331.44;2062693;28;19974;-69
2021/08/04 03:40:34;;;;;;;;;;;;;;;22.77;58.61;99327.66;2063780;28;19921;-69
2021/08/04 03:41:34;;;;;;;;;;;;;;;22.77;58.55;99331.25;2060604;28;19967;-69
2021/08/04 03:42:34;;;;;;;;;;;;;;;22.77;58.55;99320.25;2063404;28;20476;-69
2021/08/04 03:43:35;;;;;;;;;;;;;;;22.77;58.43;99324.91;2060524;28;19925;-69
2021/08/04 03:44:35;;;;;;;;;;;;;;;22.77;58.50;99324.91;2067266;28;19996;-69
2021/08/04 03:45:35;;;;;;;;;;;;;;;22.78;58.52;99326.59;2066800;28;19949;-69
2021/08/04 03:46:36;;;;;;;;;;;;;;;22.77;58.32;99319.41;2067369;28;20601;-69
2021/08/04 03:47:36;;;;;;;;;;;;;;;22.77;58.59;99317.53;2065396;28;20712;-69
2021/08/04 03:48:36;;;;;;;;;;;;;;;22.77;58.39;99317.53;2067716;28;19909;-69
2021/08/04 03:49:37;;;;;;;;;;;;;;;22.78;58.46;99312.88;2062875;28;20032;-69
2021/08/04 03:50:37;;;;;;;;;;;;;;;22.77;58.53;99313.94;2060249;28;19924;-69
2021/08/04 03:51:37;;;;;;;;;;;;;;;22.77;58.34;99316.66;2060168;28;19918;-69
2021/08/04 03:52:42;;;;;;;;;;;;;;;22.76;58.44;99320.44;2062037;28;20371;-69
2021/08/04 03:53:42;;;;;;;;;;;;;;;22.76;58.52;99320.44;2059634;28;19913;-69
2021/08/04 03:54:42;;;;;;;;;;;;;;;22.76;58.48;99323.19;2061422;28;19952;-69
2021/08/04 03:55:43;;;;;;;;;;;;;;;22.75;58.34;99330.59;2061945;28;19928;-69
2021/08/04 03:56:43;;;;;;;;;;;;;;;22.76;58.53;99332.31;2061964;28;19917;-69
2021/08/04 03:57:43;;;;;;;;;;;;;;;22.76;58.40;99339.69;2063456;28;19996;-69
2021/08/04 03:58:44;;;;;;;;;;;;;;;22.76;58.53;99334.19;2069154;28;19963;-69
2021/08/04 03:59:44;;;;;;;;;;;;;;;22.76;58.51;99339.69;2065611;28;19914;-69
2021/08/04 04:00:45;;;;;;;;;;;;;;;22.77;58.55;99335.91;2065200;28;19913;-69
2021/08/04 04:01:46;;;;;;;;;;;;;;;22.76;58.42;99328.69;2061350;28;20338;-69
2021/08/04 04:02:46;;;;;;;;;;;;;;;22.75;58.62;99333.34;2066358;28;19982;-70
2021/08/04 04:03:46;;;;;;;;;;;;;;;22.76;58.52;99329.56;2062977;28;19978;-69
2021/08/04 04:04:47;;;;;;;;;;;;;;;22.77;58.60;99333.16;2073961;28;19915;-69
2021/08/04 04:05:47;;;;;;;;;;;;;;;22.76;58.45;99331.44;2069763;28;19947;-69
2021/08/04 04:06:47;;;;;;;;;;;;;;;22.76;58.45;99336.94;2065111;28;19968;-69
2021/08/04 04:07:48;;;;;;;;;;;;;;;22.75;58.41;99336.09;2067004;28;19928;-69
2021/08/04 04:08:48;;;;;;;;;;;;;;;22.76;58.55;99339.69;2068069;28;19920;-69
2021/08/04 04:09:48;;;;;;;;;;;;;;;22.76;58.66;99339.69;2068059;28;19917;-69
2021/08/04 04:10:48;;;;;;;;;;;;;;;22.75;58.63;99341.59;2059169;28;19961;-69
2021/08/04 04:11:49;;;;;;;;;;;;;;;22.76;58.45;99339.69;2063333;28;19929;-70
2021/08/04 04:12:49;;;;;;;;;;;;;;;22.75;58.61;99340.72;2063011;28;19909;-69
2021/08/04 04:13:49;;;;;;;;;;;;;;;22.75;58.58;99343.47;2063528;28;19924;-69
2021/08/04 04:14:50;;;;;;;;;;;;;;;22.75;58.49;99338.84;2065386;28;20179;-69
2021/08/04 04:15:50;;;;;;;;;;;;;;;22.75;58.53;99338.00;2069895;28;20265;-69
2021/08/04 04:16:50;;;;;;;;;;;;;;;22.75;58.46;99335.25;2064368;28;20277;-69
2021/08/04 04:17:50;;;;;;;;;;;;;;;22.75;58.67;99338.84;2062575;28;21028;-69
2021/08/04 04:18:51;;;;;;;;;;;;;;;22.75;58.54;99340.72;2068217;28;19910;-69
2021/08/04 04:19:51;;;;;;;;;;;;;;;22.75;58.49;99338.00;2066459;28;20373;-68
2021/08/04 04:20:51;;;;;;;;;;;;;;;22.76;58.59;99339.69;2069073;28;19921;-69
2021/08/04 04:21:54;;;;;;;;;;;;;;;22.75;58.62;99338.84;2067792;28;20450;-68
2021/08/04 04:22:55;;;;;;;;;;;;;;;22.76;58.53;99334.19;2067533;28;20533;-69
2021/08/04 04:23:55;;;;;;;;;;;;;;;22.75;58.47;99338.00;2067041;28;20397;-69
2021/08/04 04:24:55;;;;;;;;;;;;;;;22.75;58.63;99332.50;2065760;28;19929;-69
2021/08/04 04:25:55;;;;;;;;;;;;;;;22.75;58.63;99327.84;2067985;28;19917;-70
2021/08/04 04:26:56;;;;;;;;;;;;;;;22.75;58.50;99316.00;2063484;28;19928;-69
2021/08/04 04:27:56;;;;;;;;;;;;;;;22.76;58.63;99320.44;2061271;28;19936;-69
2021/08/04 04:29:03;;;;;;;;;;;;;;;22.77;58.48;99319.41;2062503;28;19905;-69
2021/08/04 04:30:03;;;;;;;;;;;;;;;22.76;58.60;99317.69;2062632;28;19917;-69
2021/08/04 04:31:03;;;;;;;;;;;;;;;22.77;58.58;99316.66;2062047;28;20753;-68
2021/08/04 04:32:05;;;;;;;;;;;;;;;22.77;58.63;99319.41;2066152;28;20206;-69
2021/08/04 04:33:05;;;;;;;;;;;;;;;22.76;58.61;99323.19;2068768;28;20252;-69
2021/08/04 04:34:05;;;;;;;;;;;;;;;22.75;58.55;99327.00;2062556;28;19960;-68
2021/08/04 04:35:06;;;;;;;;;;;;;;;22.74;58.69;99326.16;2063726;28;19924;-69
2021/08/04 04:36:06;;;;;;;;;;;;;;;22.74;58.53;99325.31;2060210;28;19921;-69
2021/08/04 04:37:06;;;;;;;;;;;;;;;22.74;58.65;99331.66;2062966;28;19917;-69
2021/08/04 04:38:07;;;;;;;;;;;;;;;22.74;58.79;99325.31;2068270;28;20363;-69
2021/08/04 04:39:07;;;;;;;;;;;;;;;22.75;58.58;99318.75;2062755;28;19928;-69
2021/08/04 04:40:07;;;;;;;;;;;;;;;22.75;58.78;99316.00;2062346;28;19909;-69
2021/08/04 04:41:08;;;;;;;;;;;;;;;22.75;58.62;99316.84;2066732;28;20384;-69
2021/08/04 04:42:08;;;;;;;;;;;;;;;22.76;58.61;99317.69;2065718;28;19909;-69
2021/08/04 04:43:08;;;;;;;;;;;;;;;22.76;58.46;99318.56;2068746;28;20031;-69
2021/08/04 04:44:09;;;;;;;;;;;;;;;22.75;58.48;99311.34;2067349;28;19928;-69
2021/08/04 04:45:10;;;;;;;;;;;;;;;22.75;58.62;99322.34;2068186;28;19917;-69
2021/08/04 04:46:11;;;;;;;;;;;;;;;22.76;58.64;99328.69;2067634;28;19963;-69
2021/08/04 04:47:11;;;;;;;;;;;;;;;22.76;58.68;99334.19;2066828;28;19913;-69
2021/08/04 04:48:11;;;;;;;;;;;;;;;22.75;58.55;99336.09;2065814;28;19913;-69
2021/08/04 04:49:12;;;;;;;;;;;;;;;22.75;58.61;99340.72;2068429;28;19917;-69
2021/08/04 04:50:12;;;;;;;;;;;;;;;22.75;58.60;99338.00;2069082;28;19959;-69
2021/08/04 04:51:12;;;;;;;;;;;;;;;22.74;58.74;99336.31;2067263;28;20007;-69
2021/08/04 04:52:12;;;;;;;;;;;;;;;22.75;58.57;99341.59;2067327;28;19917;-69
2021/08/04 04:53:13;;;;;;;;;;;;;;;22.76;58.66;99334.19;2067089;28;20006;-69
2021/08/04 04:54:13;;;;;;;;;;;;;;;22.75;58.65;99343.47;2067257;28;19964;-69
2021/08/04 04:55:13;;;;;;;;;;;;;;;22.74;58.66;99336.31;2068828;28;19917;-69
2021/08/04 04:56:14;;;;;;;;;;;;;;;22.73;58.48;99329.09;2064120;28;20020;-69
2021/08/04 04:57:14;;;;;;;;;;;;;;;22.74;58.74;99336.31;2068139;28;19979;-69
2021/08/04 04:58:14;;;;;;;;;;;;;;;22.73;58.80;99340.91;2064444;28;20382;-69
2021/08/04 04:59:15;;;;;;;;;;;;;;;22.74;58.72;99341.78;2067981;28;20297;-69
2021/08/04 05:00:15;;;;;;;;;;;;;;;22.74;58.69;99341.78;2066863;28;19961;-69
2021/08/04 05:01:15;;;;;;;;;;;;;;;22.74;58.66;99341.78;2067920;28;19917;-69
2021/08/04 05:02:16;;;;;;;;;;;;;;;22.75;58.77;99340.72;2064123;28;19921;-69
2021/08/04 05:03:16;;;;;;;;;;;;;;;22.75;58.73;99340.72;2066692;28;20403;-69
2021/08/04 05:04:16;;;;;;;;;;;;;;;22.74;58.66;99342.63;2066929;28;19967;-69
2021/08/04 05:05:17;;;;;;;;;;;;;;;22.73;58.63;99346.41;2068099;28;19929;-69
2021/08/04 05:06:17;;;;;;;;;;;;;;;22.74;58.64;99352.78;2067250;28;19970;-69
2021/08/04 05:07:17;;;;;;;;;;;;;;;22.74;58.62;99350.03;2064254;28;20255;-69
2021/08/04 05:08:18;;;;;;;;;;;;;;;22.73;58.72;99357.41;2067402;28;20378;-69
2021/08/04 05:09:18;;;;;;;;;;;;;;;22.74;58.58;99355.53;2064425;28;20648;-69
2021/08/04 05:10:21;;;;;;;;;;;;;;;22.74;58.73;99355.53;2066196;28;20392;-69
2021/08/04 05:11:21;;;;;;;;;;;;;;;22.74;58.57;99363.78;2065349;28;19909;-69
2021/08/04 05:12:22;;;;;;;;;;;;;;;22.73;58.78;99356.56;2065249;28;20037;-70
2021/08/04 05:13:22;;;;;;;;;;;;;;;22.73;58.77;99360.16;2066656;28;19909;-69
2021/08/04 05:14:22;;;;;;;;;;;;;;;22.73;58.79;99367.53;2067100;28;19916;-69
2021/08/04 05:15:23;;;;;;;;;;;;;;;22.73;58.82;99367.53;2065882;28;20308;-69
2021/08/04 05:16:23;;;;;;;;;;;;;;;22.73;58.74;99367.53;2071433;28;20525;-69
2021/08/04 05:17:23;;;;;;;;;;;;;;;22.74;58.60;99361.03;2067438;28;19917;-69
2021/08/04 05:18:23;;;;;;;;;;;;;;;22.74;58.72;99363.78;2066208;28;20475;-69
2021/08/04 05:19:24;;;;;;;;;;;;;;;22.74;58.76;99358.28;2067466;28;19917;-69
2021/08/04 05:20:24;;;;;;;;;;;;;;;22.74;58.53;99347.28;2067919;28;19917;-69
2021/08/04 05:21:24;;;;;;;;;;;;;;;22.73;58.88;99342.81;2060780;28;19936;-69